Aeroporto :
LOGIN :

Iscrizione | Disclaimer

   EN    FR    IT 

 










Sommario :    VFR   VFR Marginale   IFR   IFR Intensivo   IFR Molto Intensivo
Visibilità : 
Base nubi : 
>= 8 km
>= 3000ft
5 / 8 km
1000 / 3000 ft
1500m / 5 km
500 / 1000 ft
800 / 1500m
200 / 500 ft
< 800m
< 200 ft
Simboli :   Temporali  Nebbia  Neve Forte  Precipitazioni Forti  Vento > 20 kt
SIGMETs :   Varie  Temporali  Ghiacco  Turbolenza  Onda orograficha  Ceneri Vulcaniche







- Altitudine del aeroporto : 184 ft
- Codice IATA : BRU


EBBR - Bruxelles

ULTIMO METAR :
  • 230650Z 10005KT 3500 -SN FEW003 SCT011 M02/M03 Q0996 TEMPO BKN006

METARs OBSOLETI :
  • 230620Z 11004KT 5000 -SN FEW006 BKN025 M02/M03 Q0996 TEMPO 3000 -SN BKN006
  • 230550Z 11004KT 6000 -SN FEW006 BKN021 M02/M03 Q0995 TEMPO 3000 -SN BKN006
  • 230520Z 12004KT 8000 FEW006 BKN022 M02/M03 Q0995 TEMPO 3000 -SN BKN006
  • 230450Z 12006KT 8000 FEW006 BKN024 M01/M03 Q0995 TEMPO 3000 -SN BKN006
  • 230420Z 12007KT 8000 FEW006 BKN024 M01/M03 Q0995 TEMPO 3000 -SN BKN006

TAF TAF EBBR
Valido dal 23 a 06 ore il 24 a 12 ore UTC


230520Z 2306/2412 09008KT 7000 BKN008
TEMPO 2306/2308 3000 -SN
PROB30
TEMPO 2306/2308 1100 SN BKN002
BECMG 2309/2311 SCT014
BECMG 2315/2317 BKN008
PROB30
TEMPO 2317/2324 2000 SN BKN003
Nessun NOTAM noto per questo aeroporto.



MetMap, La meteo Aeronautica in un colpo d'occhio ! - Copyright ORBIFLY Dicembre 2007 - Disclaimer

ORBIFLY MET'MAP TEAM :

Programmazione e sviluppo : Alexandra Zaïnal
Concezione e sviluppo : Baudouin d'Aumeries
Co-Programmazione e sviluppo : Marc-Olivier Méhu
Supporto tecnico e logistico : Manuel Goepfert
Aiuto per la traduzione : Arnaldo La Scala

Contatto : metmap@orbifly.com




FONTI E CREDITI :

   NOAA